Airfield :







YOU CAN JOIN US ON...

 
LOGIN :

Register | Disclaimer

   EN    FR    IT 

 









Legend :    VFR   Marginal VFR   IFR   Intensive IFR   Very Intensive IFR
Visi :
Ceiling :
>= 8 km
>= 3000ft
5 to 8 km
1000 to 3000 ft
1500m to 5 km
500 to 1000 ft
800 to 1500m
200 to 500 ft
< 800m
< 200 ft
Symbols :   Thunderstorms  Fog  Heavy snow  Heavy precipitations  Wind > 20 kt







- Airport Elevation : 1161 ft


KBML - Berlin Regional

CURRENT METAR :
  • 160237Z AUTO 00000KT 10SM BKN030 OVC035 14/09 A3006 RMK AO2 T01390094

EXPIRED METARs :
  • 160224Z AUTO 00000KT 10SM BKN028 OVC037 14/10 A3006 RMK AO2 T01390100
  • 160152Z AUTO 00000KT 10SM BKN030 OVC036 14/11 A3005 RMK AO2 SLP176 T01390106
  • 160144Z AUTO 00000KT 10SM BKN028 BKN036 OVC045 14/11 A3005 RMK AO2 T01390106
  • 160052Z AUTO 35005KT 10SM SCT033 OVC080 14/10 A3005 RMK AO2 RAB01E37 SLP175 P0001 T01440100
  • 152352Z AUTO 32003KT 10SM OVC095 16/09 A3004 RMK AO2 SLP172 T01610094 10217 20161 53007

TAF N/A
No reported NOTAMs for that airfield.



MET'MAP, your aeronautical weather chart ! - Copyright ORBIFLY December 2007 - Disclaimer

ORBIFLY MET'MAP TEAM :

Programming & Development : Alexandra Zaïnal
Concept & Development : Baudouin d'Aumeries
Co-Development & Prog : Marc-Olivier Méhu
Technical & hardware support : Manuel Goepfert

Contact : metmap@orbifly.com




SOURCES & CREDITS :

   NOAA